Aviation Digital Data Service (ADDS)

Output produced by METARs form (0148 UTC 18 October 2017)
found at http://www.aviationweather.gov/adds/metars/
 
KSIF 180125Z AUTO 00000KT 10SM CLR 05/03 A3034 RMK AO2 T00520034